Time;durP1;ratioP1;P1;durP2;ratioP2;P2;SDS_P1;SDS_P2;PMS_P1;PMS_P2;Temp;Humidity;BMP_temperature;BMP_pressure;BME280_temperature;BME280_humidity;BME280_pressure;Samples;Min_cycle;Max_cycle;Signal;HPM_P1;HPM_P2
2022/07/10 00:02:15;;;;;;;4.72;2.10;;;26.60;99.90;;;;;;4164634;28;20054;-63
2022/07/10 00:04:34;;;;;;;3.50;2.15;;;26.60;99.90;;;;;;4162241;28;20044;-63
2022/07/10 00:06:55;;;;;;;3.78;2.00;;;26.70;99.90;;;;;;4168559;28;20072;-63
2022/07/10 00:09:04;;;;;;;7.85;2.10;;;26.70;99.90;;;;;;4173526;28;20071;-63
2022/07/10 00:11:12;;;;;;;1.98;1.30;;;26.70;99.90;;;;;;4172764;28;20391;-63
2022/07/10 00:13:23;;;;;;;2.38;1.17;;;26.70;99.90;;;;;;4172080;28;20040;-63
2022/07/10 00:15:32;;;;;;;3.72;1.40;;;26.70;99.90;;;;;;4174862;28;20107;-63
2022/07/10 00:17:39;;;;;;;2.40;1.30;;;26.80;99.90;;;;;;4177022;28;20080;-63
2022/07/10 00:20:00;;;;;;;2.53;1.15;;;26.80;99.90;;;;;;4174079;28;20051;-63
2022/07/10 00:22:14;;;;;;;1.58;1.10;;;26.80;99.90;;;;;;4171757;28;20095;-63
2022/07/10 00:24:25;;;;;;;1.80;1.20;;;26.80;99.90;;;;;;4175421;28;20048;-63
2022/07/10 00:26:34;;;;;;;1.75;1.13;;;26.80;99.90;;;;;;4176535;28;20045;-62
2022/07/10 00:28:50;;;;;;;1.58;0.73;;;26.80;99.90;;;;;;4176099;28;20107;-66
2022/07/10 00:30:57;;;;;;;1.75;1.10;;;26.90;99.90;;;;;;4177413;28;20037;-66
2022/07/10 00:33:05;;;;;;;2.22;0.95;;;26.90;99.90;;;;;;4176641;28;20387;-66
2022/07/10 00:35:31;;;;;;;3.78;1.20;;;26.90;99.90;;;;;;4146315;28;20152;-66
2022/07/10 00:37:41;;;;;;;2.03;1.05;;;26.90;99.90;;;;;;4176802;28;20139;-66
2022/07/10 00:39:52;;;;;;;2.38;1.30;;;27.00;99.90;;;;;;4177364;28;20056;-66
2022/07/10 00:42:15;;;;;;;3.30;1.75;;;26.90;99.90;;;;;;4177278;28;20140;-66
2022/07/10 00:44:25;;;;;;;2.35;1.48;;;26.90;99.90;;;;;;4161511;28;20115;-66
2022/07/10 00:46:31;;;;;;;2.75;1.17;;;26.90;99.90;;;;;;4176705;28;20041;-66
2022/07/10 00:48:48;;;;;;;1.63;1.05;;;27.00;99.90;;;;;;4175940;28;20048;-66
2022/07/10 00:50:57;;;;;;;1.85;1.10;;;27.00;99.90;;;;;;4168827;28;20563;-66
2022/07/10 00:53:15;;;;;;;2.53;1.15;;;27.10;99.90;;;;;;4168598;28;20137;-66
2022/07/10 00:55:28;;;;;;;1.27;0.95;;;27.10;99.90;;;;;;4171968;28;20044;-66
2022/07/10 00:57:44;;;;;;;1.73;1.00;;;27.20;99.90;;;;;;4175244;28;20053;-66
2022/07/10 00:59:52;;;;;;;3.33;1.52;;;27.20;99.90;;;;;;4190329;28;20447;-67
2022/07/10 01:02:06;;;;;;;4.70;1.30;;;27.20;99.90;;;;;;4169304;28;20049;-67
2022/07/10 01:04:21;;;;;;;3.42;1.23;;;27.20;99.90;;;;;;4136218;28;20045;-66
2022/07/10 01:06:30;;;;;;;4.32;1.50;;;27.30;99.90;;;;;;4153719;28;20050;-66
2022/07/10 01:08:46;;;;;;;1.70;1.40;;;27.40;99.90;;;;;;4157692;28;20403;-66
2022/07/10 01:10:56;;;;;;;2.88;1.40;;;27.50;99.90;;;;;;4158150;28;20127;-66
2022/07/10 01:13:21;;;;;;;1.65;1.23;;;27.50;99.90;;;;;;4112903;28;20134;-66
2022/07/10 01:15:29;;;;;;;3.63;1.20;;;27.60;99.90;;;;;;4126187;28;20051;-66
2022/07/10 01:17:49;;;;;;;2.33;1.05;;;27.60;99.90;;;;;;4125851;28;20054;-66
2022/07/10 01:20:07;;;;;;;4.00;1.27;;;27.70;99.90;;;;;;4109158;28;20406;-67
2022/07/10 01:22:13;;;;;;;5.10;1.58;;;27.70;99.90;;;;;;4119498;28;20042;-66
2022/07/10 01:24:20;;;;;;;2.05;1.30;;;27.70;99.90;;;;;;4100632;28;20054;-67
2022/07/10 01:26:29;;;;;;;2.03;1.20;;;27.70;99.90;;;;;;4103715;28;20082;-66
2022/07/10 01:28:38;;;;;;;4.65;1.50;;;27.80;99.90;;;;;;4115621;28;20474;-66
2022/07/10 01:30:46;;;;;;;4.63;2.10;;;27.70;99.90;;;;;;4121148;28;20062;-65
2022/07/10 01:33:03;;;;;;;4.03;1.80;;;27.80;99.90;;;;;;4123755;28;20497;-64
2022/07/10 01:35:14;;;;;;;3.33;1.30;;;27.90;99.90;;;;;;4130453;28;20093;-64
2022/07/10 01:37:22;;;;;;;3.35;1.20;;;27.90;99.90;;;;;;4110052;28;20050;-65
2022/07/10 01:39:31;;;;;;;1.20;0.82;;;28.00;99.90;;;;;;4140426;28;20057;-65
2022/07/10 01:41:41;;;;;;;1.30;0.90;;;28.10;99.90;;;;;;4139361;28;20665;-65
2022/07/10 01:44:05;;;;;;;2.25;0.95;;;28.20;99.90;;;;;;4151883;28;20045;-65
2022/07/10 01:46:12;;;;;;;3.97;0.85;;;28.10;99.90;;;;;;4173158;28;20045;-65
2022/07/10 01:48:21;;;;;;;1.58;0.90;;;28.10;99.90;;;;;;4155433;28;20453;-66
2022/07/10 01:50:32;;;;;;;2.80;0.90;;;28.00;99.90;;;;;;4174462;28;20114;-66
2022/07/10 01:52:40;;;;;;;1.65;0.90;;;28.10;99.90;;;;;;4174722;28;20056;-66
2022/07/10 01:54:48;;;;;;;1.35;0.80;;;28.00;99.90;;;;;;4174182;28;20354;-65
2022/07/10 01:56:56;;;;;;;4.35;1.10;;;28.10;99.90;;;;;;4174425;28;20116;-66
2022/07/10 01:59:04;;;;;;;1.15;0.88;;;28.10;99.90;;;;;;4175802;28;20534;-66
2022/07/10 02:01:14;;;;;;;2.63;0.95;;;28.10;99.90;;;;;;4173556;28;20076;-66
2022/07/10 02:05:54;;;;;;;3.80;0.82;;;28.40;99.90;;;;;;4179944;28;20053;-66
2022/07/10 02:08:07;;;;;;;2.28;0.98;;;28.40;99.90;;;;;;4174318;28;20077;-66
2022/07/10 02:10:22;;;;;;;2.90;0.90;;;28.40;99.90;;;;;;4173058;28;20280;-66
2022/07/10 02:12:36;;;;;;;2.80;0.93;;;28.30;99.90;;;;;;4170682;28;20471;-65
2022/07/10 02:14:48;;;;;;;0.82;0.70;;;28.20;99.90;;;;;;4158144;28;20049;-65
2022/07/10 02:17:02;;;;;;;2.70;0.82;;;28.20;99.90;;;;;;4173540;28;20056;-66
2022/07/10 02:19:18;;;;;;;1.85;0.90;;;28.30;99.90;;;;;;4171357;28;20037;-65
2022/07/10 02:21:27;;;;;;;1.63;1.02;;;28.30;99.90;;;;;;4173981;28;20044;-66
2022/07/10 02:23:39;;;;;;;2.55;0.98;;;28.40;99.90;;;;;;4173811;28;20045;-66
2022/07/10 02:25:56;;;;;;;2.88;0.90;;;28.50;99.90;;;;;;4155634;28;20037;-66
2022/07/10 02:28:11;;;;;;;0.85;0.52;;;28.60;99.90;;;;;;4174726;28;20045;-66
2022/07/10 02:30:23;;;;;;;3.88;0.65;;;28.60;99.90;;;;;;4153422;28;20052;-66
2022/07/10 02:32:49;;;;;;;0.55;0.50;;;28.60;99.90;;;;;;4172887;28;20055;-65
2022/07/10 02:35:15;;;;;;;0.77;0.50;;;28.50;99.90;;;;;;4171907;28;20530;-65
2022/07/10 02:37:23;;;;;;;1.92;1.00;;;28.50;99.90;;;;;;4170093;28;20124;-66
2022/07/10 02:39:37;;;;;;;2.80;1.00;;;28.40;99.90;;;;;;4172082;28;20168;-66
2022/07/10 02:41:54;;;;;;;1.83;0.93;;;28.20;99.90;;;;;;4142195;28;20056;-66
2022/07/10 02:44:01;;;;;;;2.00;1.00;;;28.30;99.90;;;;;;4175251;28;20079;-66
2022/07/10 02:46:08;;;;;;;1.33;0.60;;;28.40;99.90;;;;;;4170261;28;20037;-66
2022/07/10 02:48:18;;;;;;;1.02;0.43;;;28.40;99.90;;;;;;4186766;28;20078;-66
2022/07/10 02:50:29;;;;;;;1.15;0.60;;;28.50;99.90;;;;;;4184522;28;20088;-66
2022/07/10 02:52:51;;;;;;;0.73;0.50;;;28.60;99.90;;;;;;4168090;28;20041;-66
2022/07/10 02:55:02;;;;;;;;;;;28.60;99.90;;;;;;4166692;28;20602;-66
2022/07/10 02:57:16;;;;;;;0.90;0.55;;;28.70;99.90;;;;;;4167954;28;20704;-66
2022/07/10 02:59:31;;;;;;;0.68;0.40;;;28.80;99.90;;;;;;4181444;28;20076;-67
2022/07/10 03:01:48;;;;;;;1.08;0.60;;;28.80;99.90;;;;;;4165940;28;20146;-66
2022/07/10 03:04:12;;;;;;;0.47;0.40;;;28.80;99.90;;;;;;4168335;28;20278;-66
2022/07/10 03:06:28;;;;;;;1.48;0.60;;;28.60;99.90;;;;;;4165262;28;20041;-66
2022/07/10 03:08:41;;;;;;;0.85;0.47;;;28.40;99.90;;;;;;4166911;28;20309;-65
2022/07/10 03:10:47;;;;;;;1.65;0.60;;;28.50;99.90;;;;;;4168122;28;20465;-66
2022/07/10 03:13:07;;;;;;;1.75;0.73;;;28.50;99.90;;;;;;4168252;28;20117;-66
2022/07/10 03:15:24;;;;;;;0.77;0.40;;;28.60;99.90;;;;;;4166241;28;20040;-66
2022/07/10 03:17:41;;;;;;;1.35;0.40;;;28.70;99.90;;;;;;4168801;28;20136;-66
2022/07/10 03:19:49;;;;;;;0.82;0.40;;;28.70;99.90;;;;;;4172790;28;20202;-66
2022/07/10 03:22:05;;;;;;;1.30;0.65;;;28.50;99.90;;;;;;4168070;28;20491;-66
2022/07/10 03:24:11;;;;;;;2.38;0.50;;;28.70;99.90;;;;;;4170419;28;20120;-66
2022/07/10 03:26:20;;;;;;;4.15;0.50;;;28.80;99.90;;;;;;4170265;28;20120;-66
2022/07/10 03:28:40;;;;;;;2.05;0.70;;;28.90;99.90;;;;;;4187533;28;20408;-66
2022/07/10 03:30:52;;;;;;;1.73;0.47;;;28.90;99.90;;;;;;4165950;28;20034;-67
2022/07/10 03:33:03;;;;;;;2.03;0.52;;;28.90;99.90;;;;;;4168465;28;20492;-66
2022/07/10 03:35:13;;;;;;;3.80;0.97;;;28.90;99.90;;;;;;4169088;28;20041;-65
2022/07/10 03:37:27;;;;;;;2.63;0.73;;;28.90;99.90;;;;;;4168234;28;20284;-66
2022/07/10 03:39:42;;;;;;;1.58;0.65;;;28.80;99.90;;;;;;4168147;28;20049;-67
2022/07/10 03:41:50;;;;;;;2.40;0.70;;;28.80;99.90;;;;;;4139209;28;20052;-66
2022/07/10 03:44:05;;;;;;;1.30;0.50;;;28.80;99.90;;;;;;4176993;28;20057;-66
2022/07/10 03:46:14;;;;;;;1.05;0.60;;;28.80;99.90;;;;;;4176915;28;20133;-66
2022/07/10 03:48:33;;;;;;;0.93;0.60;;;28.70;99.90;;;;;;4176507;28;20055;-66
2022/07/10 03:50:58;;;;;;;2.53;0.60;;;28.70;99.90;;;;;;4174431;28;20060;-66
2022/07/10 03:53:10;;;;;;;3.90;0.57;;;28.70;99.90;;;;;;4177183;28;20612;-66
2022/07/10 03:55:18;;;;;;;1.10;0.60;;;28.60;99.90;;;;;;4176334;28;20098;-65
2022/07/10 04:00:03;;;;;;;2.95;0.70;;;28.60;99.90;;;;;;4177481;28;20717;-66
2022/07/10 04:02:17;;;;;;;1.70;0.60;;;28.60;99.90;;;;;;4159423;28;20156;-64
2022/07/10 04:04:26;;;;;;;2.15;0.75;;;28.60;99.90;;;;;;4177874;28;20053;-66
2022/07/10 04:06:39;;;;;;;2.05;1.20;;;28.30;99.90;;;;;;4177669;28;20057;-66
2022/07/10 04:08:53;;;;;;;5.53;3.30;;;28.20;99.90;;;;;;4177807;28;20041;-66
2022/07/10 04:11:04;;;;;;;2.38;1.80;;;28.20;99.90;;;;;;4191911;28;20044;-66
2022/07/10 04:13:14;;;;;;;2.92;1.33;;;28.10;99.90;;;;;;4177606;28;20041;-65
2022/07/10 04:15:37;;;;;;;;;;;28.20;99.90;;;;;;4176823;28;20488;-66
2022/07/10 04:17:45;;;;;;;1.80;1.10;;;28.20;99.90;;;;;;4177849;28;19924;-66
2022/07/10 04:19:52;;;;;;;2.20;0.85;;;28.20;99.90;;;;;;4175737;28;20041;-66
2022/07/10 04:22:00;;;;;;;2.30;0.90;;;28.10;99.90;;;;;;4174844;28;20061;-66
2022/07/10 04:24:12;;;;;;;1.40;0.80;;;28.20;99.90;;;;;;4176392;28;20041;-66
2022/07/10 04:26:29;;;;;;;1.73;0.63;;;28.20;99.90;;;;;;4175687;28;20059;-66
2022/07/10 04:28:56;;;;;;;1.90;0.70;;;28.40;99.90;;;;;;4174869;28;20056;-65
2022/07/10 04:31:07;;;;;;;1.08;0.65;;;28.50;99.90;;;;;;4176033;28;20446;-66
2022/07/10 04:33:19;;;;;;;1.02;0.85;;;28.50;99.90;;;;;;4173810;28;20098;-66
2022/07/10 04:35:31;;;;;;;0.90;0.50;;;28.70;99.90;;;;;;4173581;28;20037;-66
2022/07/10 04:37:40;;;;;;;1.98;0.60;;;28.80;99.90;;;;;;4174724;28;20056;-66
2022/07/10 04:39:54;;;;;;;0.93;0.55;;;28.80;99.90;;;;;;4179108;28;20061;-67
2022/07/10 04:42:05;;;;;;;2.05;0.63;;;28.90;99.90;;;;;;4177768;28;20532;-65
2022/07/10 04:44:16;;;;;;;0.52;0.50;;;29.00;99.90;;;;;;4169057;28;20709;-65
2022/07/10 04:46:24;;;;;;;0.75;0.30;;;29.20;99.90;;;;;;4171003;28;20041;-66
2022/07/10 04:48:32;;;;;;;1.75;0.30;;;29.40;99.90;;;;;;4165403;28;20557;-66
2022/07/10 04:50:43;;;;;;;2.67;0.50;;;29.30;99.90;;;;;;4174463;28;20557;-66
2022/07/10 04:52:58;;;;;;;2.22;0.60;;;29.30;99.90;;;;;;4170055;28;20057;-67
2022/07/10 04:55:09;;;;;;;1.95;0.98;;;29.60;99.90;;;;;;4169302;28;20048;-67
2022/07/10 04:57:33;;;;;;;0.47;0.30;;;29.80;99.90;;;;;;4170927;28;20045;-68
2022/07/10 04:59:43;;;;;;;0.77;0.47;;;30.00;99.90;;;;;;4154562;28;20782;-67
2022/07/10 05:01:50;;;;;;;1.35;0.70;;;30.20;99.90;;;;;;4170303;28;20132;-67
2022/07/10 05:03:58;;;;;;;0.45;0.30;;;30.20;99.90;;;;;;4185803;28;20036;-65
2022/07/10 05:06:08;;;;;;;1.92;0.40;;;30.30;99.90;;;;;;4171356;28;20041;-66
2022/07/10 05:08:32;;;;;;;1.70;0.52;;;30.40;99.90;;;;;;4159772;28;20057;-66
2022/07/10 05:10:45;;;;;;;1.08;0.43;;;30.40;99.90;;;;;;4166983;28;20059;-67
2022/07/10 05:13:02;;;;;;;0.60;0.50;;;30.50;99.90;;;;;;4169461;28;20455;-65
2022/07/10 05:15:20;;;;;;;1.13;0.80;;;30.50;99.90;;;;;;4169272;28;20533;-66
2022/07/10 05:17:32;;;;;;;1.50;0.60;;;30.30;99.90;;;;;;4170550;28;20045;-66
2022/07/10 05:19:51;;;;;;;1.55;0.90;;;30.40;99.90;;;;;;4172240;28;21575;-66
2022/07/10 05:22:01;;;;;;;1.33;0.90;;;30.30;99.90;;;;;;4142674;28;20089;-66
2022/07/10 05:24:13;;;;;;;2.25;1.02;;;30.30;99.90;;;;;;4175988;28;20037;-67
2022/07/10 05:26:23;;;;;;;1.10;0.90;;;30.30;99.90;;;;;;4175478;28;20068;-66
2022/07/10 05:28:30;;;;;;;2.35;0.70;;;30.20;99.90;;;;;;4173895;28;20499;-66
2022/07/10 05:30:54;;;;;;;1.83;0.70;;;29.90;99.90;;;;;;4165136;28;20719;-66
2022/07/10 05:33:02;;;;;;;2.80;0.70;;;29.70;99.90;;;;;;4164960;28;20099;-65
2022/07/10 05:35:11;;;;;;;1.83;0.70;;;29.80;99.90;;;;;;4164328;28;20092;-65
2022/07/10 05:37:31;;;;;;;1.00;0.63;;;29.90;99.90;;;;;;4168533;28;20106;-64
2022/07/10 05:39:57;;;;;;;1.02;0.60;;;30.00;99.90;;;;;;4154260;28;20050;-65
2022/07/10 05:42:06;;;;;;;1.58;0.68;;;30.10;99.90;;;;;;4164839;28;20124;-66
2022/07/10 05:44:13;;;;;;;2.33;0.50;;;30.10;99.90;;;;;;4167033;28;20045;-65
2022/07/10 05:46:21;;;;;;;1.67;0.68;;;30.20;99.90;;;;;;4165889;28;20504;-65
2022/07/10 05:48:42;;;;;;;1.83;0.70;;;30.20;99.90;;;;;;4165192;28;20045;-66
2022/07/10 05:50:52;;;;;;;1.30;0.73;;;30.30;99.90;;;;;;4179598;28;20565;-65
2022/07/10 05:53:15;;;;;;;4.70;0.70;;;30.40;99.90;;;;;;4152171;28;20041;-65
2022/07/10 05:55:28;;;;;;;1.75;0.70;;;30.40;99.90;;;;;;4152081;28;20041;-65
2022/07/10 05:57:41;;;;;;;1.20;0.57;;;30.60;99.90;;;;;;4165097;28;20061;-66
2022/07/10 05:59:58;;;;;;;2.65;0.60;;;30.60;99.90;;;;;;4165026;28;20885;-65
2022/07/10 06:02:28;;;;;;;1.52;0.57;;;30.60;99.90;;;;;;4174664;28;20171;-67
2022/07/10 06:04:38;;;;;;;2.80;0.60;;;30.60;99.90;;;;;;4162087;28;20056;-66
2022/07/10 06:06:57;;;;;;;2.08;0.55;;;30.60;99.90;;;;;;4165349;28;20040;-66
2022/07/10 06:09:04;;;;;;;2.20;0.93;;;30.60;99.90;;;;;;4160098;28;20072;-66
2022/07/10 06:11:23;;;;;;;2.50;0.77;;;30.80;99.90;;;;;;4157631;28;20083;-64
2022/07/10 06:13:35;;;;;;;0.90;0.70;;;31.00;99.90;;;;;;4155919;28;20985;-64
2022/07/10 06:15:48;;;;;;;2.28;0.68;;;30.90;99.90;;;;;;4137828;28;20037;-64
2022/07/10 06:17:59;;;;;;;1.58;0.80;;;30.90;99.90;;;;;;4156520;28;20154;-64
2022/07/10 06:20:10;;;;;;;2.22;0.75;;;30.90;99.90;;;;;;4155869;28;20091;-65
2022/07/10 06:22:32;;;;;;;1.02;0.65;;;30.80;99.90;;;;;;4155912;28;20052;-64
2022/07/10 06:24:40;;;;;;;1.83;0.80;;;30.80;99.90;;;;;;4162666;28;20420;-65
2022/07/10 06:26:54;;;;;;;0.93;0.70;;;30.70;99.90;;;;;;4155876;28;20048;-65
2022/07/10 06:29:01;;;;;;;0.85;0.60;;;30.70;99.90;;;;;;4142419;28;20076;-64
2022/07/10 06:31:14;;;;;;;2.22;0.80;;;30.60;99.90;;;;;;4161243;28;20041;-63
2022/07/10 06:33:25;;;;;;;2.22;0.60;;;30.60;99.90;;;;;;4160938;28;20095;-64
2022/07/10 06:35:43;;;;;;;1.88;0.80;;;30.60;99.90;;;;;;4158804;28;20041;-63
2022/07/10 06:38:02;;;;;;;1.92;1.00;;;30.70;99.90;;;;;;4162344;28;20045;-65
2022/07/10 06:40:21;;;;;;;2.22;0.80;;;30.70;99.90;;;;;;4163816;28;20051;-63
2022/07/10 06:42:40;;;;;;;1.92;0.90;;;30.70;99.90;;;;;;4162612;28;20056;-64
2022/07/10 06:44:52;;;;;;;2.13;0.80;;;30.70;99.90;;;;;;4160292;28;20421;-64
2022/07/10 06:49:22;;;;;;;3.50;0.88;;;30.70;99.90;;;;;;4165986;28;20090;-64
2022/07/10 06:51:29;;;;;;;3.90;0.80;;;30.80;99.90;;;;;;4164848;28;20052;-64
2022/07/10 06:53:35;;;;;;;1.48;0.88;;;30.80;99.90;;;;;;4164671;28;20053;-63
2022/07/10 06:55:46;;;;;;;1.52;0.85;;;30.70;99.90;;;;;;4119735;28;20556;-63
2022/07/10 06:57:52;;;;;;;1.35;0.70;;;30.80;99.90;;;;;;4142961;28;20041;-64
2022/07/10 07:00:06;;;;;;;1.50;0.60;;;30.70;99.90;;;;;;4167090;28;20473;-64
2022/07/10 07:02:24;;;;;;;1.42;0.75;;;30.60;99.90;;;;;;4165154;28;20503;-64
2022/07/10 07:04:36;;;;;;;1.77;0.75;;;30.60;99.90;;;;;;4166222;28;20041;-64
2022/07/10 07:06:57;;;;;;;2.22;0.73;;;30.50;99.90;;;;;;4166527;28;20091;-63
2022/07/10 07:09:11;;;;;;;1.35;0.60;;;30.50;99.90;;;;;;4169756;28;20144;-64
2022/07/10 07:11:33;;;;;;;2.08;0.70;;;30.50;99.90;;;;;;4169721;28;20052;-64
2022/07/10 07:13:43;;;;;;;1.60;0.65;;;30.50;99.90;;;;;;4164255;28;20044;-63
2022/07/10 07:16:00;;;;;;;3.15;0.80;;;30.50;99.90;;;;;;4163798;28;20523;-64
2022/07/10 07:18:31;;;;;;;2.10;0.60;;;30.60;99.90;;;;;;4168215;28;20120;-65
2022/07/10 07:23:16;;;;;;;2.25;0.60;;;30.50;99.90;;;;;;4162432;28;20345;-66
2022/07/10 07:25:26;;;;;;;2.47;0.70;;;30.60;99.90;;;;;;4155841;28;20052;-65
2022/07/10 07:27:41;;;;;;;2.08;0.60;;;30.70;99.90;;;;;;4170992;28;20132;-65
2022/07/10 07:29:54;;;;;;;0.73;0.40;;;30.70;99.90;;;;;;4170012;28;20114;-65
2022/07/10 07:32:01;;;;;;;2.05;0.40;;;30.80;99.90;;;;;;4168493;28;20041;-65
2022/07/10 07:34:20;;;;;;;1.58;0.43;;;30.80;99.90;;;;;;4169353;28;20094;-65
2022/07/10 07:36:36;;;;;;;2.85;0.40;;;30.80;99.90;;;;;;4170757;28;20069;-65
2022/07/10 07:38:52;;;;;;;1.48;0.50;;;30.90;99.90;;;;;;4169761;28;20460;-64
2022/07/10 07:41:10;;;;;;;1.75;0.50;;;30.90;99.90;;;;;;4163735;28;20041;-65
2022/07/10 07:43:22;;;;;;;1.23;0.60;;;31.00;99.90;;;;;;4165779;28;20041;-65
2022/07/10 07:45:30;;;;;;;2.38;0.60;;;30.90;99.90;;;;;;4164852;28;20045;-64
2022/07/10 07:47:48;;;;;;;0.57;0.30;;;30.90;99.90;;;;;;4164588;28;20401;-64
2022/07/10 07:49:55;;;;;;;2.28;0.50;;;31.00;99.90;;;;;;4162586;28;20836;-65
2022/07/10 07:52:17;;;;;;;0.17;0.17;;;31.00;99.90;;;;;;4164341;28;20053;-65
2022/07/10 07:54:43;;;;;;;2.08;0.28;;;31.00;99.90;;;;;;4165016;28;20050;-65
2022/07/10 07:56:50;;;;;;;2.67;0.30;;;31.00;99.90;;;;;;4140787;28;20108;-65
2022/07/10 07:59:01;;;;;;;1.88;0.30;;;31.00;99.90;;;;;;4159614;28;20567;-65
2022/07/10 08:01:23;;;;;;;0.73;0.40;;;31.00;99.90;;;;;;4164741;28;20404;-64
2022/07/10 08:03:44;;;;;;;0.47;0.30;;;31.00;99.90;;;;;;4165702;28;20720;-64
2022/07/10 08:06:13;;;;;;;1.45;0.70;;;31.10;99.90;;;;;;4162869;28;20676;-64
2022/07/10 08:08:20;;;;;;;1.70;1.00;;;31.00;99.90;;;;;;4167961;28;20036;-64
2022/07/10 08:10:33;;;;;;;1.67;0.82;;;30.90;99.90;;;;;;4173290;28;20452;-64
2022/07/10 08:12:47;;;;;;;3.25;1.27;;;30.90;99.90;;;;;;4165091;28;20076;-64
2022/07/10 08:14:55;;;;;;;1.85;1.00;;;30.90;99.90;;;;;;4155065;28;20536;-64
2022/07/10 08:17:22;;;;;;;3.85;2.60;;;31.10;99.90;;;;;;4143068;28;21027;-63
2022/07/10 08:19:46;;;;;;;4.03;2.63;;;31.30;99.90;;;;;;4170753;28;20040;-64
2022/07/10 08:21:54;;;;;;;3.60;2.40;;;31.30;99.90;;;;;;4167315;28;20088;-64
2022/07/10 08:24:02;;;;;;;1.88;1.50;;;31.40;99.70;;;;;;4167397;28;20037;-64
2022/07/10 08:26:11;;;;;;;3.55;2.50;;;31.40;99.30;;;;;;4163432;28;20046;-62
2022/07/10 08:28:30;;;;;;;2.80;2.40;;;31.50;99.10;;;;;;4168926;28;20141;-65
2022/07/10 08:30:56;;;;;;;2.65;1.83;;;31.60;99.00;;;;;;4176581;28;20607;-65
2022/07/10 08:33:05;;;;;;;0.80;0.60;;;31.60;98.80;;;;;;4150044;28;20041;-64
2022/07/10 08:35:13;;;;;;;1.20;0.85;;;31.50;98.80;;;;;;4166757;28;20478;-64
2022/07/10 08:37:20;;;;;;;1.77;1.17;;;31.50;98.70;;;;;;4163741;28;20040;-63
2022/07/10 08:39:29;;;;;;;1.52;0.82;;;31.50;98.80;;;;;;4163736;28;20045;-64
2022/07/10 08:41:40;;;;;;;2.90;1.58;;;31.50;98.60;;;;;;4169245;28;20125;-65
2022/07/10 08:43:55;;;;;;;3.03;1.02;;;31.50;98.50;;;;;;4147702;28;21563;-64
2022/07/10 08:46:05;;;;;;;2.35;1.08;;;31.40;98.40;;;;;;4156926;28;20565;-64
2022/07/10 08:48:23;;;;;;;5.18;4.43;;;31.30;98.30;;;;;;4132796;28;20038;-65
2022/07/10 08:50:48;;;;;;;5.50;4.13;;;31.30;98.50;;;;;;4115197;28;20165;-65
2022/07/10 08:53:22;;;;;;;2.67;1.92;;;31.10;98.30;;;;;;4128027;28;20092;-66
2022/07/10 08:55:49;;;;;;;1.70;1.25;;;31.10;98.60;;;;;;4123178;28;20462;-65
2022/07/10 08:58:14;;;;;;;3.38;1.80;;;31.00;98.80;;;;;;4124509;28;20154;-65
2022/07/10 09:00:27;;;;;;;1.05;0.60;;;31.10;98.50;;;;;;4133253;28;20060;-66
2022/07/10 09:02:53;;;;;;;2.20;0.80;;;30.90;98.60;;;;;;4117347;28;20066;-66
2022/07/10 09:05:08;;;;;;;1.45;0.63;;;30.90;98.80;;;;;;4111723;28;20097;-65
2022/07/10 09:07:19;;;;;;;1.37;0.60;;;30.90;99.00;;;;;;4136533;28;20067;-65
2022/07/10 09:09:30;;;;;;;1.30;0.90;;;30.70;99.50;;;;;;4138450;28;20128;-64
2022/07/10 09:11:49;;;;;;;5.20;1.23;;;30.40;99.50;;;;;;4129199;28;20101;-63
2022/07/10 09:14:10;;;;;;;2.85;0.90;;;30.40;99.70;;;;;;4128721;28;20408;-65
2022/07/10 09:16:27;;;;;;;1.52;1.00;;;30.50;99.70;;;;;;4131935;28;20046;-63
2022/07/10 09:18:50;;;;;;;2.17;1.00;;;30.60;99.90;;;;;;4139337;28;20046;-64
2022/07/10 09:20:58;;;;;;;2.97;1.05;;;30.60;99.90;;;;;;4165472;28;20087;-64
2022/07/10 09:23:20;;;;;;;5.22;1.80;;;30.60;99.90;;;;;;4104703;28;20391;-63
2022/07/10 09:25:32;;;;;;;4.30;1.27;;;30.40;99.90;;;;;;4103894;28;20702;-64
2022/07/10 09:27:59;;;;;;;1.77;1.00;;;30.50;99.90;;;;;;4090959;28;20114;-64
2022/07/10 09:30:06;;;;;;;2.38;0.93;;;30.20;99.90;;;;;;4104101;28;20708;-64
2022/07/10 09:32:18;;;;;;;6.93;0.63;;;30.20;99.90;;;;;;4105642;28;20055;-64
2022/07/10 09:34:47;;;;;;;3.10;0.88;;;30.20;99.90;;;;;;4118005;28;20050;-64
2022/07/10 09:37:18;;;;;;;1.58;0.70;;;30.20;99.90;;;;;;4103363;28;20652;-63
2022/07/10 09:39:29;;;;;;;1.65;0.70;;;30.40;99.90;;;;;;4104227;28;20085;-64
2022/07/10 09:41:36;;;;;;;1.17;0.47;;;30.30;99.90;;;;;;4103702;28;20067;-64
2022/07/10 09:44:04;;;;;;;4.60;0.80;;;30.20;99.90;;;;;;4098036;28;20103;-64
2022/07/10 09:46:11;;;;;;;1.30;0.73;;;30.10;99.90;;;;;;4104027;28;20061;-64
2022/07/10 09:48:18;;;;;;;1.50;0.77;;;30.00;99.90;;;;;;4104870;28;20054;-65
2022/07/10 09:50:34;;;;;;;1.88;0.70;;;29.80;99.90;;;;;;4102930;28;20458;-65
2022/07/10 09:52:40;;;;;;;0.60;0.43;;;29.70;99.90;;;;;;4104139;28;20657;-65
2022/07/10 09:54:57;;;;;;;1.00;0.70;;;29.70;99.90;;;;;;4143731;28;20049;-65
2022/07/10 09:57:24;;;;;;;1.50;0.63;;;29.70;99.90;;;;;;4125929;28;20042;-65
2022/07/10 09:59:32;;;;;;;1.85;0.73;;;29.70;99.90;;;;;;4137989;28;20041;-64
2022/07/10 10:01:41;;;;;;;2.70;0.90;;;29.60;99.90;;;;;;4135420;28;20052;-64
2022/07/10 10:03:52;;;;;;;2.65;0.88;;;29.40;99.90;;;;;;4152922;28;20077;-64
2022/07/10 10:06:15;;;;;;;5.57;4.93;;;29.30;99.90;;;;;;4136070;28;20050;-65
2022/07/10 10:08:27;;;;;;;2.40;1.67;;;29.50;99.90;;;;;;4151448;28;20096;-64
2022/07/10 10:10:36;;;;;;;2.40;1.17;;;29.40;99.90;;;;;;4138295;28;20625;-64
2022/07/10 10:12:48;;;;;;;3.40;0.90;;;29.30;99.90;;;;;;4129738;28;20599;-64
2022/07/10 10:14:57;;;;;;;2.13;0.70;;;29.30;99.90;;;;;;4128968;28;20042;-64
2022/07/10 10:17:09;;;;;;;;;;;29.20;99.90;;;;;;4139707;28;20046;-64
2022/07/10 10:21:47;;;;;;;3.17;1.20;;;29.20;99.90;;;;;;4152674;28;20152;-64
2022/07/10 10:23:56;;;;;;;3.38;1.15;;;29.40;99.90;;;;;;4172619;28;20041;-64
2022/07/10 10:26:06;;;;;;;1.98;1.10;;;29.40;99.90;;;;;;4173297;28;20156;-64
2022/07/10 10:28:13;;;;;;;2.47;1.10;;;29.40;99.90;;;;;;4176559;28;20494;-65
2022/07/10 10:30:19;;;;;;;3.13;1.67;;;29.40;99.90;;;;;;4175235;28;20045;-65
2022/07/10 10:32:40;;;;;;;5.13;1.77;;;29.30;99.90;;;;;;4176680;28;20044;-65
2022/07/10 10:34:58;;;;;;;7.30;2.40;;;29.10;99.90;;;;;;4176108;28;20667;-65
2022/07/10 10:37:07;;;;;;;4.13;1.50;;;29.20;99.90;;;;;;4171802;28;20041;-66
2022/07/10 10:39:21;;;;;;;6.18;1.50;;;29.20;99.90;;;;;;4161291;28;20578;-64
2022/07/10 10:41:33;;;;;;;2.60;0.90;;;29.20;99.90;;;;;;4175973;28;20049;-65
2022/07/10 10:44:10;;;;;;;3.50;1.10;;;29.30;99.90;;;;;;4193433;28;20128;-65
2022/07/10 10:46:25;;;;;;;1.48;0.70;;;29.10;99.90;;;;;;4193275;28;20411;-63
2022/07/10 10:48:31;;;;;;;3.20;1.35;;;29.00;99.90;;;;;;4189897;28;20049;-65
2022/07/10 10:50:53;;;;;;;5.57;1.02;;;29.00;99.90;;;;;;4157849;28;20057;-64
2022/07/10 10:53:02;;;;;;;2.00;1.00;;;28.90;99.90;;;;;;4146449;28;20641;-65
2022/07/10 10:55:11;;;;;;;3.72;1.33;;;29.00;99.90;;;;;;4143064;28;20534;-64
2022/07/10 10:57:20;;;;;;;2.63;1.40;;;28.80;99.90;;;;;;4127621;28;20759;-65
2022/07/10 10:59:45;;;;;;;3.30;1.00;;;28.70;99.90;;;;;;4117239;28;20046;-65
2022/07/10 11:02:24;;;;;;;3.60;1.45;;;28.70;99.90;;;;;;4137875;28;20552;-65
2022/07/10 11:04:39;;;;;;;3.25;1.30;;;28.90;99.90;;;;;;4127109;28;20046;-65
2022/07/10 11:06:53;;;;;;;2.30;1.45;;;28.80;99.90;;;;;;4136962;28;20042;-65
2022/07/10 11:09:01;;;;;;;5.05;1.70;;;28.80;99.90;;;;;;4121594;28;20102;-64
2022/07/10 11:11:34;;;;;;;4.47;1.77;;;28.90;99.90;;;;;;4099253;28;20043;-65
2022/07/10 11:13:48;;;;;;;3.72;2.00;;;28.90;99.90;;;;;;4105801;28;20142;-66
2022/07/10 11:16:14;;;;;;;2.78;1.50;;;29.00;99.90;;;;;;4105003;28;20039;-65
2022/07/10 11:18:28;;;;;;;5.13;2.70;;;29.00;99.90;;;;;;4073864;29;20048;-65
2022/07/10 11:20:38;;;;;;;5.70;2.70;;;29.00;99.90;;;;;;4077052;29;20150;-65
2022/07/10 11:23:03;;;;;;;3.78;2.60;;;29.00;99.90;;;;;;4105799;28;20051;-65
2022/07/10 11:26:08;;;;;;;2.72;1.60;;;29.00;99.90;;;;;;4123111;28;20054;-65
2022/07/10 11:28:50;;;;;;;4.13;1.80;;;28.90;99.90;;;;;;4065276;29;20174;-65
2022/07/10 11:31:07;;;;;;;3.97;1.83;;;28.90;99.90;;;;;;4071993;29;20074;-64
2022/07/10 11:33:47;;;;;;;4.47;2.53;;;28.90;99.90;;;;;;4073857;29;20526;-65
2022/07/10 11:36:25;;;;;;;5.03;2.20;;;28.80;99.90;;;;;;4072998;29;20598;-65
2022/07/10 11:38:45;;;;;;;;;;;28.80;99.90;;;;;;4072958;29;20079;-66
2022/07/10 11:41:17;;;;;;;3.50;2.15;;;28.80;99.90;;;;;;4021952;29;20031;-65
2022/07/10 11:43:25;;;;;;;5.55;2.22;;;28.80;99.90;;;;;;4023635;29;20184;-66
2022/07/10 11:45:38;;;;;;;3.42;2.15;;;28.60;99.90;;;;;;4044819;29;20079;-65
2022/07/10 11:47:54;;;;;;;3.25;2.10;;;28.70;99.90;;;;;;4049424;29;20110;-66
2022/07/10 11:50:01;;;;;;;4.55;3.00;;;28.70;99.90;;;;;;4056390;29;20615;-65
2022/07/10 11:52:12;;;;;;;6.95;3.17;;;28.70;99.90;;;;;;4053647;29;20451;-66
2022/07/10 11:54:21;;;;;;;6.10;3.60;;;28.60;99.90;;;;;;4052882;29;20112;-66